Time;durP1;ratioP1;P1;durP2;ratioP2;P2;SDS_P1;SDS_P2;PMS_P1;PMS_P2;Temp;Humidity;BMP_temperature;BMP_pressure;BME280_temperature;BME280_humidity;BME280_pressure;Samples;Min_cycle;Max_cycle;Signal;HPM_P1;HPM_P2
2021/12/18 00:00:36;;;;;;;;;40.00;32.50;;;;;6.36;81.21;102940.91;5056576;28;45393;-76
2021/12/18 00:03:02;;;;;;;;;42.50;37.00;;;;;6.18;81.64;102917.13;5056308;28;45393;-77
2021/12/18 00:05:28;;;;;;;;;40.25;36.75;;;;;6.33;81.53;102932.84;5050241;28;45420;-77
2021/12/18 00:07:53;;;;;;;;;42.75;36.00;;;;;6.15;80.96;102910.00;5057909;28;45438;-75
2021/12/18 00:10:22;;;;;;;;;34.75;33.25;;;;;6.28;81.36;102928.25;5057489;28;46210;-75
2021/12/18 00:12:49;;;;;;;;;38.00;34.75;;;;;6.24;81.53;102920.13;5058567;28;45152;-76
2021/12/18 00:15:16;;;;;;;;;40.25;33.75;;;;;6.02;81.24;102885.63;5058748;28;45362;-77
2021/12/18 00:17:41;;;;;;;;;30.75;29.00;;;;;6.13;81.74;102905.47;5059330;28;45474;-76
2021/12/18 00:20:07;;;;;;;;;41.25;39.00;;;;;6.21;81.04;102918.22;5041542;28;48763;-76
2021/12/18 00:22:33;;;;;;;;;43.00;35.00;;;;;6.16;81.73;102905.69;5045505;28;45362;-77
2021/12/18 00:24:58;;;;;;;;;37.75;31.00;;;;;6.09;80.85;102901.78;5059004;28;46040;-77
2021/12/18 00:27:24;;;;;;;;;38.75;34.00;;;;;5.99;81.37;102887.25;5060310;28;45259;-79
2021/12/18 00:29:49;;;;;;;;;36.00;33.75;;;;;5.82;81.45;102864.34;5057931;28;45814;-79
2021/12/18 00:32:15;;;;;;;;;35.25;30.75;;;;;6.16;81.15;102919.66;5061341;28;45765;-77
2021/12/18 00:34:40;;;;;;;;;37.00;32.50;;;;;6.14;81.32;102926.53;5062965;28;45307;-78
2021/12/18 00:37:06;;;;;;;;;40.00;35.25;;;;;5.96;81.63;102894.91;5061705;28;45421;-80
2021/12/18 00:39:33;;;;;;;;;34.50;30.00;;;;;5.76;80.58;102861.38;5060639;28;46139;-76
2021/12/18 00:44:47;;;;;;;;;36.25;31.75;;;;;6.05;80.58;102909.34;5025499;28;45323;-78
2021/12/18 00:47:13;;;;;;;;;40.25;32.00;;;;;5.78;81.30;102858.88;5018047;28;45448;-79
2021/12/18 00:49:38;;;;;;;;;35.75;28.00;;;;;6.06;80.95;102912.06;5032093;28;46201;-81
2021/12/18 00:52:04;;;;;;;;;29.00;28.75;;;;;5.85;80.97;102875.00;5024158;28;45538;-77
2021/12/18 00:54:31;;;;;;;;;30.25;28.75;;;;;5.74;80.82;102849.91;5018398;28;45547;-78
2021/12/18 00:56:56;;;;;;;;;36.00;33.50;;;;;6.03;80.49;102904.03;5017589;28;45531;-78
2021/12/18 00:59:22;;;;;;;;;33.25;31.25;;;;;5.95;80.69;102890.47;5026337;28;45360;-77
2021/12/18 01:01:47;;;;;;;;;34.75;30.00;;;;;5.54;81.07;102817.31;5029021;28;45488;-74
2021/12/18 01:04:13;;;;;;;;;29.50;29.25;;;;;5.93;81.08;102894.72;5017781;28;45387;-75
2021/12/18 01:06:39;;;;;;;;;27.50;27.50;;;;;5.78;80.41;102874.56;5017716;28;45320;-80
2021/12/18 01:09:04;;;;;;;;;31.25;30.00;;;;;5.84;80.84;102887.97;5022067;28;47508;-81
2021/12/18 01:11:33;;;;;;;;;33.25;28.00;;;;;5.95;80.97;102910.50;5029050;28;45521;-77
2021/12/18 01:25:05;;;;;;;;;33.00;31.50;;;;;5.82;80.45;102916.66;5059491;28;45325;-77
2021/12/18 01:27:31;;;;;;;;;28.00;24.25;;;;;5.68;80.41;102892.31;5059373;28;45410;-77
2021/12/18 01:29:56;;;;;;;;;32.75;30.25;;;;;5.78;80.85;102904.22;5059086;28;45470;-76
2021/12/18 01:32:23;;;;;;;;;23.25;23.00;;;;;5.66;80.78;102877.28;5059284;28;45503;-78
2021/12/18 01:34:48;;;;;;;;;29.00;27.25;;;;;5.53;80.37;102857.34;5058625;28;45425;-79
2021/12/18 01:37:14;;;;;;;;;31.75;31.00;;;;;5.82;80.84;102928.84;5059420;28;45420;-77
2021/12/18 01:39:40;;;;;;;;;31.75;31.00;;;;;5.72;80.97;102915.19;5059567;28;46305;-78
2021/12/18 01:51:16;;;;;;;;;27.00;24.00;;;;;5.68;80.38;102914.94;5058925;28;45390;-77
2021/12/18 01:53:03;;;;;;;;;14.75;14.00;;;;;5.62;80.55;102909.31;5059007;28;45532;-78
2021/12/18 01:55:32;;;;;;;;;35.50;29.25;;;;;5.56;80.34;102904.59;5059329;28;45448;-79
2021/12/18 01:57:59;;;;;;;;;35.25;26.25;;;;;5.66;80.25;102926.97;5060068;28;45357;-79
2021/12/18 02:00:28;;;;;;;;;24.00;18.50;;;;;5.70;79.94;102923.78;5061497;28;45390;-84
2021/12/18 02:02:53;;;;;;;;;25.00;23.25;;;;;5.60;80.11;102911.84;5063574;28;45424;-82
2021/12/18 02:05:22;;;;;;;;;28.00;25.25;;;;;5.65;80.17;102915.63;5061938;28;45425;-77
2021/12/18 02:07:48;;;;;;;;;26.25;22.75;;;;;5.68;80.32;102920.16;5062788;28;45141;-76
2021/12/18 02:10:19;;;;;;;;;31.00;27.25;;;;;5.64;80.39;102915.53;5062263;28;45271;-87
2021/12/18 02:12:57;;;;;;;;;32.50;29.50;;;;;5.49;80.03;102897.19;5063049;28;45452;-80
2021/12/18 02:20:53;;;;;;;;;29.25;23.75;;;;;5.56;80.31;102935.06;5059174;28;45375;-81
2021/12/18 02:23:19;;;;;;;;;35.75;32.75;;;;;5.37;79.95;102897.31;5059419;28;45292;-80
2021/12/18 02:25:46;;;;;;;;;29.00;26.50;;;;;5.23;80.08;102877.25;5038219;28;45322;-84
2021/12/18 02:28:17;;;;;;;;;29.00;28.25;;;;;5.39;80.09;102890.47;5055403;28;45511;-83
2021/12/18 02:30:45;;;;;;;;;34.00;32.50;;;;;5.60;80.34;102924.91;5058930;28;45465;-79
2021/12/18 02:33:11;;;;;;;;;33.25;30.00;;;;;5.49;79.90;102896.25;5058817;28;45471;-80
2021/12/18 02:35:45;;;;;;;;;38.00;31.00;;;;;5.13;80.17;102831.34;5059108;28;45579;-75
2021/12/18 02:38:15;;;;;;;;;36.00;29.00;;;;;5.17;80.28;102839.38;5059040;28;45340;-77
2021/12/18 02:43:13;;;;;;;;;27.25;27.25;;;;;5.28;79.79;102848.78;5058265;28;45461;-73
2021/12/18 02:45:38;;;;;;;;;31.75;29.00;;;;;5.41;80.27;102878.41;5058396;28;45408;-76
2021/12/18 02:48:04;;;;;;;;;32.75;30.75;;;;;5.69;79.43;102920.25;5058438;28;45306;-78
2021/12/18 02:50:30;;;;;;;;;32.00;31.50;;;;;5.65;79.31;102917.34;5059067;28;45559;-78
2021/12/18 02:52:55;;;;;;;;;36.00;31.25;;;;;5.64;79.38;102905.97;5039879;28;45443;-80
2021/12/18 02:55:21;;;;;;;;;29.00;26.25;;;;;5.43;79.53;102868.06;5059050;28;45278;-83
2021/12/18 02:57:46;;;;;;;;;31.75;27.25;;;;;5.43;79.01;102862.81;5058393;28;45474;-78
2021/12/18 03:00:12;;;;;;;;;37.33;30.33;;;;;5.58;78.92;102894.22;5058219;28;46401;-78
2021/12/18 03:02:43;;;;;;;;;35.50;33.75;;;;;5.75;79.69;102918.81;5058659;28;45235;-82
2021/12/18 03:05:13;;;;;;;;;36.00;33.00;;;;;5.73;79.04;102927.47;5057579;28;45414;-78
2021/12/18 03:07:39;;;;;;;;;34.50;31.50;;;;;5.49;79.45;102867.50;5033944;28;45589;-78
2021/12/18 03:23:47;;;;;;;;;36.25;32.00;;;;;6.13;78.20;102927.31;5057967;28;45449;-79
2021/12/18 03:26:14;;;;;;;;;38.50;32.75;;;;;6.08;78.65;102912.16;5057585;28;45528;-77
2021/12/18 03:28:39;;;;;;;;;40.50;36.25;;;;;6.04;78.56;102897.06;5057982;28;45492;-78
2021/12/18 03:31:05;;;;;;;;;40.00;31.75;;;;;6.27;78.22;102934.28;5057367;28;45505;-77
2021/12/18 03:33:30;;;;;;;;;39.25;34.25;;;;;6.09;78.45;102885.19;5057748;28;45438;-77
2021/12/18 03:35:57;;;;;;;;;25.25;21.00;;;;;5.97;78.02;102856.59;5057700;28;45158;-80
2021/12/18 03:38:22;;;;;;;;;28.00;25.25;;;;;6.10;78.56;102869.56;5058469;28;45526;-74
2021/12/18 03:40:48;;;;;;;;;32.75;28.50;;;;;6.11;78.21;102865.25;5057774;28;46106;-77
2021/12/18 03:43:14;;;;;;;;;31.75;30.25;;;;;6.35;78.48;102897.22;5060530;28;45508;-81
2021/12/18 03:45:39;;;;;;;;;36.50;31.00;;;;;6.38;78.28;102900.00;5059890;28;45492;-79
2021/12/18 03:48:05;;;;;;;;;42.75;29.75;;;;;6.24;78.33;102860.84;5058978;28;45369;-79
2021/12/18 03:50:31;;;;;;;;;30.25;27.50;;;;;6.54;77.73;102902.72;5057436;28;46330;-78
2021/12/18 03:52:56;;;;;;;;;38.00;32.75;;;;;6.09;77.93;102810.22;5058431;28;45375;-77
2021/12/18 03:55:22;;;;;;;;;37.00;32.25;;;;;6.50;77.64;102885.91;5057841;28;45432;-78
2021/12/18 03:57:47;;;;;;;;;39.00;32.75;;;;;6.50;78.00;102875.44;5058495;28;45425;-75
2021/12/18 04:00:15;;;;;;;;;33.00;25.50;;;;;6.66;78.38;102889.41;5057027;28;45897;-77
2021/12/18 04:02:41;;;;;;;;;26.50;26.00;;;;;6.56;78.40;102869.66;5057426;28;45430;-77
2021/12/18 04:05:08;;;;;;;;;38.75;30.25;;;;;6.58;78.60;102870.63;5056441;28;45475;-78
2021/12/18 04:07:40;;;;;;;;;36.75;31.00;;;;;6.34;78.04;102823.03;5057921;28;45615;-76
2021/12/18 04:10:07;;;;;;;;;29.50;27.50;;;;;6.68;77.94;102883.44;5057525;28;46117;-77
2021/12/18 04:12:33;;;;;;;;;29.00;28.50;;;;;6.59;78.02;102854.09;5058012;28;45477;-77
2021/12/18 04:14:58;;;;;;;;;27.25;24.75;;;;;6.67;78.03;102871.16;5059315;28;45516;-80
2021/12/18 04:17:23;;;;;;;;;35.75;29.75;;;;;6.52;77.55;102845.03;5059272;28;45243;-78
2021/12/18 04:19:49;;;;;;;;;36.25;34.00;;;;;6.77;78.03;102891.84;5057168;28;46285;-75
2021/12/18 04:22:14;;;;;;;;;31.50;31.50;;;;;6.75;78.19;102885.59;5056557;28;45468;-77
2021/12/18 04:24:40;;;;;;;;;38.50;36.00;;;;;6.85;77.39;102897.50;5057148;28;45679;-76
2021/12/18 04:27:05;;;;;;;;;32.75;31.75;;;;;6.79;77.27;102890.22;5058342;28;45263;-76
2021/12/18 04:29:30;;;;;;;;;43.25;33.25;;;;;6.76;77.71;102876.94;5056608;28;46320;-75
2021/12/18 04:31:56;;;;;;;;;33.00;29.25;;;;;6.84;78.05;102878.28;5057126;28;45307;-77
2021/12/18 04:34:21;;;;;;;;;38.25;34.25;;;;;6.80;77.18;102863.22;5057819;28;45350;-79
2021/12/18 04:36:47;;;;;;;;;38.00;30.75;;;;;6.95;77.64;102904.19;5057262;28;45480;-75
2021/12/18 04:39:12;;;;;;;;;34.25;30.50;;;;;6.95;78.03;102889.34;5057652;28;45565;-76
2021/12/18 04:41:47;;;;;;;;;38.25;35.00;;;;;6.90;77.74;102884.69;5057232;28;45187;-78
2021/12/18 04:44:13;;;;;;;;;43.50;33.25;;;;;6.93;77.34;102888.38;5037395;28;45310;-76
2021/12/18 04:46:38;;;;;;;;;33.50;28.25;;;;;6.91;77.17;102881.25;5056647;28;45442;-77
2021/12/18 04:49:04;;;;;;;;;34.75;29.50;;;;;7.05;78.24;102903.88;5057434;28;45377;-77
2021/12/18 04:51:30;;;;;;;;;32.50;27.50;;;;;6.94;77.07;102879.69;5057086;28;45788;-77
2021/12/18 04:53:55;;;;;;;;;32.50;29.00;;;;;7.07;77.41;102905.78;5057556;28;45371;-77
2021/12/18 04:56:21;;;;;;;;;31.75;30.25;;;;;7.00;77.68;102897.50;5057754;28;45388;-76
2021/12/18 04:58:46;;;;;;;;;38.00;33.25;;;;;6.97;77.03;102882.47;5057293;28;46134;-78
2021/12/18 05:01:12;;;;;;;;;35.00;32.00;;;;;7.12;76.80;102906.94;5056511;28;45369;-79
2021/12/18 05:03:39;;;;;;;;;32.75;28.50;;;;;7.05;76.62;102896.03;5056852;28;45405;-80
2021/12/18 05:06:05;;;;;;;;;32.50;30.25;;;;;7.05;76.46;102891.69;5056598;28;45437;-77
2021/12/18 05:08:30;;;;;;;;;44.75;36.75;;;;;7.10;76.90;102895.47;5056747;28;46402;-77
2021/12/18 05:10:56;;;;;;;;;33.00;30.50;;;;;7.20;76.56;102912.63;5038582;28;45462;-76
2021/12/18 05:13:21;;;;;;;;;39.75;31.25;;;;;6.86;77.21;102852.16;5056989;28;45419;-77
2021/12/18 05:15:46;;;;;;;;;44.25;35.75;;;;;7.12;76.84;102896.47;5058913;28;45310;-78
2021/12/18 05:18:12;;;;;;;;;35.00;32.00;;;;;7.19;76.93;102904.66;5059818;28;46412;-77
2021/12/18 05:20:38;;;;;;;;;42.25;35.25;;;;;7.25;76.62;102918.09;5060228;28;45250;-81
2021/12/18 05:23:03;;;;;;;;;28.25;25.00;;;;;7.08;75.87;102890.97;5059367;28;45616;-83
2021/12/18 05:25:29;;;;;;;;;33.00;30.25;;;;;7.06;77.01;102884.72;5060282;28;45776;-84
2021/12/18 05:27:54;;;;;;;;;32.25;25.75;;;;;7.22;76.13;102915.31;5060222;28;46535;-77
2021/12/18 05:30:20;;;;;;;;;31.50;29.50;;;;;7.26;76.65;102918.22;5061185;28;45307;-77
2021/12/18 05:32:45;;;;;;;;;40.25;32.00;;;;;7.13;76.04;102893.00;5060098;28;45536;-78
2021/12/18 05:35:13;;;;;;;;;33.50;31.00;;;;;7.09;76.31;102895.41;5059843;28;45509;-78
2021/12/18 05:37:51;;;;;;;;;33.25;29.50;;;;;7.25;76.10;102918.09;5060169;28;45536;-77
2021/12/18 05:40:22;;;;;;;;;33.00;29.75;;;;;7.10;76.58;102881.47;5059833;28;45288;-79
2021/12/18 05:42:49;;;;;;;;;34.25;29.75;;;;;7.23;76.29;102909.25;5059758;28;45445;-77
2021/12/18 05:45:15;;;;;;;;;27.25;25.50;;;;;7.19;76.03;102909.91;5059912;28;45304;-78
2021/12/18 05:47:43;;;;;;;;;30.75;27.50;;;;;7.09;76.16;102892.78;5059811;28;46495;-80
2021/12/18 05:50:11;;;;;;;;;42.25;34.75;;;;;7.03;75.28;102884.56;5060617;28;45433;-78
2021/12/18 05:52:36;;;;;;;;;33.25;28.00;;;;;6.95;75.97;102876.25;5060402;28;45345;-80
2021/12/18 05:55:03;;;;;;;;;30.25;27.50;;;;;7.14;76.09;102923.66;5060151;28;45238;-78
2021/12/18 05:57:28;;;;;;;;;33.75;29.25;;;;;6.83;75.77;102870.34;5059729;28;46507;-78
2021/12/18 05:59:54;;;;;;;;;32.50;30.00;;;;;6.71;76.41;102849.59;5059690;28;45420;-76
2021/12/18 06:02:20;;;;;;;;;33.75;32.00;;;;;7.06;75.52;102908.31;5060972;28;45323;-76
2021/12/18 06:04:45;;;;;;;;;41.25;29.75;;;;;6.94;75.94;102884.94;5060838;28;45417;-77
2021/12/18 06:07:27;;;;;;;;;29.75;26.75;;;;;6.96;76.53;102883.28;5060406;28;45538;-82
2021/12/18 06:09:53;;;;;;;;;29.50;28.25;;;;;6.99;76.08;102904.47;5060470;28;45421;-77
2021/12/18 06:12:18;;;;;;;;;29.75;24.75;;;;;6.87;76.56;102874.91;5060379;28;45322;-77
2021/12/18 06:14:43;;;;;;;;;39.50;34.00;;;;;7.04;76.07;102902.06;5060223;28;45583;-77
2021/12/18 06:17:09;;;;;;;;;21.25;16.75;;;;;6.76;76.55;102861.22;5064692;28;46152;-75
2021/12/18 06:19:35;;;;;;;;;34.75;27.25;;;;;6.77;76.32;102883.97;5069333;28;45314;-76
2021/12/18 06:22:01;;;;;;;;;33.75;30.25;;;;;6.63;76.35;102866.59;5053578;28;45418;-78
2021/12/18 06:24:28;;;;;;;;;37.50;31.50;;;;;6.64;76.84;102884.09;5069045;28;45485;-75
2021/12/18 06:26:55;;;;;;;;;34.00;28.75;;;;;6.20;77.09;102816.06;5077202;28;45417;-73
2021/12/18 06:29:21;;;;;;;;;33.25;30.50;;;;;6.57;77.72;102893.31;5070058;28;45232;-75
2021/12/18 06:31:46;;;;;;;;;34.50;30.50;;;;;6.33;77.86;102851.69;5066962;28;45367;-78
2021/12/18 06:34:12;;;;;;;;;35.50;31.50;;;;;6.50;77.80;102890.22;5065442;28;45210;-72
2021/12/18 06:36:38;;;;;;;;;33.75;28.25;;;;;6.52;77.94;102907.88;5048537;28;47440;-72
2021/12/18 06:39:04;;;;;;;;;38.00;34.50;;;;;6.34;78.03;102887.56;5084066;28;45676;-73
2021/12/18 06:41:30;;;;;;;;;28.75;28.00;;;;;6.31;78.91;102884.72;5085671;28;45345;-72
2021/12/18 06:43:55;;;;;;;;;33.00;27.25;;;;;6.28;79.23;102894.22;5031320;28;45406;-73
2021/12/18 06:46:21;;;;;;;;;32.75;29.25;;;;;6.14;78.46;102882.03;5060130;28;45457;-74
2021/12/18 06:48:46;;;;;;;;;33.50;32.75;;;;;6.05;79.38;102878.88;5060039;28;45318;-73
2021/12/18 06:51:11;;;;;;;;;33.75;30.50;;;;;6.18;79.90;102909.28;5060567;28;45545;-75
2021/12/18 06:53:37;;;;;;;;;38.25;33.75;;;;;6.14;79.79;102900.38;5062027;28;45330;-71
2021/12/18 06:56:03;;;;;;;;;24.50;23.25;;;;;5.95;79.07;102879.09;5043147;28;46760;-76
2021/12/18 06:58:29;;;;;;;;;41.00;29.50;;;;;6.04;80.05;102902.31;5066447;28;45276;-77
2021/12/18 07:00:55;;;;;;;;;37.50;33.50;;;;;6.00;79.93;102903.84;5055485;28;45694;-74
2021/12/18 07:03:21;;;;;;;;;22.75;22.75;;;;;6.04;79.38;102910.16;5058542;28;45539;-75
2021/12/18 07:05:47;;;;;;;;;35.75;32.50;;;;;5.91;79.34;102895.44;5057076;28;46408;-76
2021/12/18 07:08:13;;;;;;;;;36.75;32.75;;;;;5.95;79.82;102914.00;5057419;28;45434;-82
2021/12/18 07:10:39;;;;;;;;;27.25;27.25;;;;;5.80;80.21;102896.47;5059796;28;45423;-80
2021/12/18 07:13:04;;;;;;;;;35.75;32.00;;;;;5.93;80.62;102930.44;5060082;28;45314;-79
2021/12/18 07:15:29;;;;;;;;;38.75;33.25;;;;;5.76;79.66;102897.97;5059013;28;46343;-77
2021/12/18 07:17:55;;;;;;;;;39.00;31.50;;;;;5.79;80.45;102911.25;5059067;28;45255;-78
2021/12/18 07:20:20;;;;;;;;;38.25;35.50;;;;;5.87;80.28;102930.94;5059087;28;45265;-77
2021/12/18 07:22:47;;;;;;;;;32.00;28.50;;;;;5.86;80.63;102930.81;5059096;28;45400;-76
2021/12/18 07:25:13;;;;;;;;;30.75;29.25;;;;;5.65;80.55;102899.03;5058897;28;45454;-77
2021/12/18 07:27:39;;;;;;;;;32.25;31.50;;;;;5.79;80.83;102929.56;5058729;28;45521;-78
2021/12/18 07:30:05;;;;;;;;;25.25;25.00;;;;;5.50;80.05;102877.19;5058673;28;45413;-78
2021/12/18 07:32:30;;;;;;;;;34.75;31.75;;;;;5.66;80.33;102921.75;5059286;28;45367;-80
2021/12/18 07:34:56;;;;;;;;;36.50;32.00;;;;;5.50;80.20;102887.66;5058890;28;45774;-78
2021/12/18 07:37:24;;;;;;;;;37.25;30.25;;;;;5.58;80.12;102913.44;5040962;28;45236;-79
2021/12/18 07:39:50;;;;;;;;;36.75;35.00;;;;;5.65;80.66;102930.41;5058608;28;45422;-77
2021/12/18 07:42:15;;;;;;;;;34.75;28.25;;;;;5.66;80.81;102940.94;5058598;28;45266;-78
2021/12/18 07:44:42;;;;;;;;;30.75;29.00;;;;;5.58;80.73;102929.09;5058029;28;46622;-77
2021/12/18 07:47:07;;;;;;;;;21.00;18.25;;;;;5.33;80.45;102890.09;5057874;28;45310;-78
2021/12/18 07:49:33;;;;;;;;;35.50;30.75;;;;;5.60;79.74;102935.38;5058472;28;45682;-78
2021/12/18 07:52:02;;;;;;;;;33.50;29.50;;;;;5.28;80.39;102885.38;5058530;28;45213;-79
2021/12/18 07:54:28;;;;;;;;;35.75;30.00;;;;;5.34;80.37;102889.28;5058234;28;46232;-77
2021/12/18 07:56:53;;;;;;;;;37.50;29.75;;;;;5.71;80.50;102955.25;5058569;28;45363;-77
2021/12/18 07:59:19;;;;;;;;;33.75;27.75;;;;;5.64;80.40;102941.69;5039969;28;45486;-78
2021/12/18 08:01:44;;;;;;;;;35.00;29.00;;;;;5.67;79.72;102936.63;5058188;28;45289;-78
2021/12/18 08:04:10;;;;;;;;;34.00;30.00;;;;;5.67;79.76;102921.84;5058205;28;45461;-77
2021/12/18 08:06:35;;;;;;;;;31.75;27.00;;;;;5.76;79.97;102942.44;5039327;28;45774;-79
2021/12/18 08:09:00;;;;;;;;;38.67;32.00;;;;;5.73;79.18;102932.69;5057854;28;45393;-77
2021/12/18 08:11:26;;;;;;;;;36.75;28.50;;;;;5.81;79.33;102941.03;5057570;28;45252;-77
2021/12/18 08:13:51;;;;;;;;;36.00;33.25;;;;;5.82;78.91;102945.44;5057653;28;45413;-77
2021/12/18 08:16:17;;;;;;;;;34.50;28.50;;;;;5.50;79.06;102878.09;5057735;28;45303;-77
2021/12/18 08:18:43;;;;;;;;;39.25;32.50;;;;;5.85;79.23;102939.47;5058376;28;45271;-84
2021/12/18 08:21:08;;;;;;;;;35.50;31.50;;;;;5.68;79.25;102913.22;5058039;28;45210;-78
2021/12/18 08:23:33;;;;;;;;;26.25;26.00;;;;;5.85;78.70;102935.16;5057385;28;45390;-79
2021/12/18 08:25:59;;;;;;;;;24.50;22.00;;;;;5.80;79.18;102920.91;5057470;28;45279;-80
2021/12/18 08:28:25;;;;;;;;;33.50;30.50;;;;;5.95;78.11;102949.72;5057907;28;45254;-78
2021/12/18 08:30:50;;;;;;;;;29.75;26.50;;;;;5.78;78.99;102922.53;5057917;28;45192;-78
2021/12/18 08:33:16;;;;;;;;;35.00;25.75;;;;;5.78;79.06;102905.94;5057391;28;45516;-81
2021/12/18 08:35:41;;;;;;;;;35.25;31.50;;;;;5.69;78.47;102888.88;5057428;28;45315;-79
2021/12/18 08:38:07;;;;;;;;;40.25;30.75;;;;;6.05;78.00;102940.75;5057217;28;45224;-79
2021/12/18 08:40:34;;;;;;;;;38.00;28.25;;;;;6.03;78.09;102931.91;5057409;28;45165;-78
2021/12/18 08:43:00;;;;;;;;;33.75;28.50;;;;;6.15;78.23;102945.75;5057265;28;46438;-79
2021/12/18 08:45:26;;;;;;;;;30.25;26.25;;;;;6.09;77.57;102938.41;5057235;28;45443;-77
2021/12/18 08:47:52;;;;;;;;;31.25;27.75;;;;;6.06;77.67;102919.94;5057432;28;45259;-78
2021/12/18 08:50:19;;;;;;;;;31.50;27.00;;;;;6.10;77.00;102935.00;5058639;28;45402;-79
2021/12/18 08:52:46;;;;;;;;;39.50;33.50;;;;;6.22;76.82;102947.91;5060618;28;45500;-77
2021/12/18 08:55:13;;;;;;;;;36.00;30.25;;;;;6.32;76.76;102945.03;5060823;28;45189;-78
2021/12/18 08:57:39;;;;;;;;;38.75;35.25;;;;;6.37;77.09;102948.84;5061039;28;45350;-77
2021/12/18 09:00:09;;;;;;;;;38.00;32.00;;;;;6.40;76.96;102954.25;5060927;28;45365;-78
2021/12/18 09:02:40;;;;;;;;;33.75;28.25;;;;;6.34;76.81;102935.56;5042985;28;46035;-81
2021/12/18 09:05:07;;;;;;;;;31.75;31.25;;;;;6.40;76.84;102935.00;5060792;28;45481;-77
2021/12/18 09:07:33;;;;;;;;;40.25;29.50;;;;;6.45;76.54;102942.34;5060679;28;45315;-80
2021/12/18 09:09:59;;;;;;;;;30.00;26.75;;;;;6.49;75.65;102939.09;5060668;28;45307;-83
2021/12/18 09:12:32;;;;;;;;;29.75;28.25;;;;;6.61;76.64;102954.63;5060312;28;45569;-81
2021/12/18 09:14:58;;;;;;;;;35.50;30.75;;;;;6.39;75.63;102893.94;5060389;28;45326;-78
2021/12/18 09:17:24;;;;;;;;;30.25;29.75;;;;;6.53;75.73;102914.91;5060203;28;46144;-77
2021/12/18 09:19:50;;;;;;;;;32.00;27.75;;;;;6.35;75.92;102873.66;5042324;28;45463;-77
2021/12/18 09:22:17;;;;;;;;;32.00;29.50;;;;;6.38;74.66;102885.19;5060376;28;45303;-83
2021/12/18 09:24:43;;;;;;;;;29.25;29.25;;;;;5.95;75.09;102790.16;5042196;28;45595;-83
2021/12/18 09:27:08;;;;;;;;;31.50;27.50;;;;;7.31;72.65;102797.84;5060190;28;45463;-78
2021/12/18 09:29:34;;;;;;;;;30.75;30.25;;;;;11.09;63.01;102898.94;5060336;28;45317;-82
2021/12/18 09:32:00;;;;;;;;;32.25;27.00;;;;;13.85;55.62;102915.53;5042054;28;45406;-79
2021/12/18 09:34:30;;;;;;;;;28.25;26.75;;;;;15.55;49.92;102884.50;5041908;28;45365;-78
2021/12/18 09:36:55;;;;;;;;;33.75;24.50;;;;;17.32;45.82;102902.75;5061891;28;45283;-77
2021/12/18 09:39:21;;;;;;;;;26.00;24.00;;;;;18.50;42.96;102903.25;5060945;28;45228;-77
2021/12/18 09:41:50;;;;;;;;;29.50;26.50;;;;;19.38;40.50;102875.44;5060452;28;46472;-77
2021/12/18 09:44:23;;;;;;;;;32.25;26.75;;;;;20.57;38.05;102907.97;5061500;28;45421;-80
2021/12/18 09:46:49;;;;;;;;;28.50;26.75;;;;;21.25;36.32;102887.34;5059916;28;45500;-80
2021/12/18 09:49:15;;;;;;;;;26.50;24.25;;;;;22.05;35.07;102891.47;5060348;28;45343;-77
2021/12/18 09:51:40;;;;;;;;;28.00;23.25;;;;;22.00;35.22;102887.03;5059590;28;46661;-79
2021/12/18 09:54:06;;;;;;;;;29.00;26.50;;;;;22.75;33.83;102911.59;5060445;28;45318;-78
2021/12/18 09:56:31;;;;;;;;;23.75;21.50;;;;;23.08;32.70;102859.34;5060520;28;45352;-78
2021/12/18 09:58:57;;;;;;;;;21.00;20.25;;;;;22.40;33.01;102885.00;5060140;28;45341;-79
2021/12/18 10:01:22;;;;;;;;;24.67;22.00;;;;;20.75;36.08;102912.38;5059887;28;45301;-79
2021/12/18 10:03:51;;;;;;;;;23.33;22.00;;;;;21.37;35.76;102900.72;5059575;28;45285;-80
2021/12/18 10:06:39;;;;;;;;;23.33;22.67;;;;;22.77;33.20;102907.97;5059872;28;45259;-78
2021/12/18 10:09:11;;;;;;;;;23.33;23.33;;;;;22.03;33.69;102904.00;5059546;28;45645;-78
2021/12/18 10:11:46;;;;;;;;;27.33;25.33;;;;;19.59;37.38;102890.72;5058770;28;45329;-80
2021/12/18 10:14:12;;;;;;;;;25.00;22.33;;;;;19.24;38.38;102891.38;5058980;28;45342;-78
2021/12/18 10:16:49;;;;;;;;;25.33;22.33;;;;;21.42;35.48;102881.97;5059127;28;45400;-79
2021/12/18 10:19:30;;;;;;;;;27.33;24.00;;;;;23.10;32.20;102883.53;5059136;28;45431;-78
2021/12/18 10:21:58;;;;;;;;;30.33;27.33;;;;;24.29;30.11;102920.59;5058566;28;45540;-79
2021/12/18 10:24:25;;;;;;;;;30.00;29.33;;;;;24.94;28.62;102921.34;5058812;28;45428;-78
2021/12/18 10:26:50;;;;;;;;;31.67;27.33;;;;;25.40;28.26;102919.59;5061696;28;45325;-79
2021/12/18 10:29:35;;;;;;;;;29.33;25.67;;;;;25.56;28.37;102919.25;5060348;28;45506;-83
2021/12/18 10:32:12;;;;;;;;;26.00;23.67;;;;;25.73;28.04;102943.25;5061408;28;45640;-81
2021/12/18 10:34:39;;;;;;;;;25.00;24.33;;;;;25.83;27.32;102958.34;5060941;28;45364;-80
2021/12/18 10:37:08;;;;;;;;;23.00;22.33;;;;;24.70;28.72;102903.78;5059474;28;45308;-79
2021/12/18 10:39:38;;;;;;;;;27.67;23.67;;;;;22.52;31.42;102887.59;5059207;28;45334;-81
2021/12/18 10:42:21;;;;;;;;;18.33;18.33;;;;;20.08;34.58;102885.53;5059221;28;46296;-83
2021/12/18 10:45:00;;;;;;;;;25.33;24.00;;;;;18.20;37.90;102834.50;5059220;28;45545;-78
2021/12/18 10:47:41;;;;;;;;;32.33;26.67;;;;;17.52;40.36;102845.28;5059121;28;45267;-78
2021/12/18 10:50:19;;;;;;;;;20.67;19.00;;;;;18.06;39.58;102956.19;5058904;28;45579;-79
2021/12/18 10:52:44;;;;;;;;;23.00;22.67;;;;;19.95;36.63;103044.25;5059091;28;46258;-82
2021/12/18 10:55:09;;;;;;;;;23.33;21.67;;;;;21.67;33.88;103009.69;5059011;28;45217;-78
2021/12/18 10:57:35;;;;;;;;;21.00;21.00;;;;;22.43;32.40;102904.69;5059020;28;45746;-79
2021/12/18 11:00:00;;;;;;;;;24.00;23.00;;;;;22.11;32.59;102861.94;5058958;28;45263;-80
2021/12/18 11:02:27;;;;;;;;;22.00;21.00;;;;;20.19;35.04;102823.13;5024013;28;46165;-82
2021/12/18 11:05:11;;;;;;;;;21.00;21.00;;;;;19.35;36.88;102849.56;5058895;28;45352;-79
2021/12/18 11:07:42;;;;;;;;;29.33;26.33;;;;;18.58;38.71;102859.72;5059005;28;45408;-79
2021/12/18 11:10:43;;;;;;;;;25.00;23.33;;;;;18.04;39.99;102853.00;5058728;28;45496;-78
2021/12/18 11:15:55;;;;;;;;;22.33;22.00;;;;;17.14;41.22;102809.28;5058233;28;45493;-79
2021/12/18 11:18:20;;;;;;;;;21.00;19.00;;;;;17.00;41.52;102822.38;5058343;28;45379;-79
2021/12/18 11:20:49;;;;;;;;;21.33;20.33;;;;;16.84;41.49;102825.69;5058273;28;45353;-77
2021/12/18 11:23:19;;;;;;;;;25.00;22.67;;;;;16.65;42.14;102841.34;5057765;28;46275;-78
2021/12/18 11:25:45;;;;;;;;;24.33;24.00;;;;;16.42;43.18;102830.34;5057656;28;45462;-78
2021/12/18 11:28:13;;;;;;;;;14.00;13.00;;;;;16.27;42.96;102831.81;5057815;28;45407;-78
2021/12/18 11:30:39;;;;;;;;;22.67;22.33;;;;;16.23;43.23;102852.16;5057854;28;45298;-78
2021/12/18 11:33:05;;;;;;;;;25.25;24.50;;;;;16.08;43.61;102858.09;5057730;28;46184;-77
2021/12/18 11:35:30;;;;;;;;;26.75;24.25;;;;;16.01;43.83;102858.88;5058554;28;45384;-78
2021/12/18 11:38:04;;;;;;;;;26.00;25.25;;;;;15.86;44.19;102856.78;5058244;28;45199;-78
2021/12/18 11:40:34;;;;;;;;;24.25;23.25;;;;;15.67;45.17;102817.44;5058841;28;45283;-78
2021/12/18 11:43:05;;;;;;;;;20.50;20.00;;;;;15.37;45.81;102789.38;5058573;28;46330;-77
2021/12/18 11:45:34;;;;;;;;;31.25;25.25;;;;;15.41;45.61;102814.22;5058642;28;45244;-78
2021/12/18 11:48:01;;;;;;;;;23.25;23.00;;;;;15.46;46.54;102838.25;5059049;28;45491;-79
2021/12/18 11:50:26;;;;;;;;;28.25;25.00;;;;;15.42;46.24;102828.41;5057767;28;45327;-78
2021/12/18 11:53:01;;;;;;;;;25.25;24.00;;;;;15.36;46.12;102838.03;5057087;28;46263;-79
2021/12/18 11:55:34;;;;;;;;;29.00;25.75;;;;;15.24;46.90;102819.16;5057365;28;45267;-77
2021/12/18 11:58:21;;;;;;;;;31.50;27.00;;;;;15.27;46.80;102829.00;5057674;28;45440;-78
2021/12/18 12:00:49;;;;;;;;;25.25;21.00;;;;;15.30;46.67;102824.63;5057560;28;45500;-78